sensor_id;sensor_type;location;lat;lon;timestamp;P1;durP1;ratioP1;P2;durP2;ratioP2
13741;SDS011;8461;52.356;10.704;2022-07-23T00:00:32;5.77;;;5.00;;
13741;SDS011;8461;52.356;10.704;2022-07-23T00:02:58;7.77;;;5.53;;
13741;SDS011;8461;52.356;10.704;2022-07-23T00:05:23;7.57;;;5.53;;
13741;SDS011;8461;52.356;10.704;2022-07-23T00:07:49;5.57;;;4.97;;
13741;SDS011;8461;52.356;10.704;2022-07-23T00:10:14;5.77;;;5.17;;
13741;SDS011;8461;52.356;10.704;2022-07-23T00:12:40;6.53;;;4.73;;
13741;SDS011;8461;52.356;10.704;2022-07-23T00:15:06;7.03;;;5.10;;
13741;SDS011;8461;52.356;10.704;2022-07-23T00:17:33;9.33;;;5.40;;
13741;SDS011;8461;52.356;10.704;2022-07-23T00:19:59;7.27;;;4.97;;
13741;SDS011;8461;52.356;10.704;2022-07-23T00:22:24;6.27;;;5.57;;
13741;SDS011;8461;52.356;10.704;2022-07-23T00:24:50;6.53;;;5.53;;
13741;SDS011;8461;52.356;10.704;2022-07-23T00:27:15;9.77;;;5.13;;
13741;SDS011;8461;52.356;10.704;2022-07-23T00:29:41;5.50;;;4.77;;
13741;SDS011;8461;52.356;10.704;2022-07-23T00:32:07;8.53;;;5.17;;
13741;SDS011;8461;52.356;10.704;2022-07-23T00:34:32;6.47;;;4.63;;
13741;SDS011;8461;52.356;10.704;2022-07-23T00:36:58;6.67;;;4.90;;
13741;SDS011;8461;52.356;10.704;2022-07-23T00:39:23;5.70;;;4.73;;
13741;SDS011;8461;52.356;10.704;2022-07-23T00:41:49;8.70;;;5.40;;
13741;SDS011;8461;52.356;10.704;2022-07-23T00:44:22;6.30;;;5.03;;
13741;SDS011;8461;52.356;10.704;2022-07-23T00:46:50;7.13;;;4.77;;
13741;SDS011;8461;52.356;10.704;2022-07-23T00:49:23;6.70;;;4.97;;
13741;SDS011;8461;52.356;10.704;2022-07-23T00:51:51;6.57;;;4.80;;
13741;SDS011;8461;52.356;10.704;2022-07-23T00:54:18;7.23;;;4.67;;
13741;SDS011;8461;52.356;10.704;2022-07-23T00:56:44;7.47;;;5.37;;
13741;SDS011;8461;52.356;10.704;2022-07-23T00:59:11;8.23;;;5.40;;
13741;SDS011;8461;52.356;10.704;2022-07-23T01:01:37;7.93;;;5.80;;
13741;SDS011;8461;52.356;10.704;2022-07-23T01:04:03;6.73;;;5.33;;
13741;SDS011;8461;52.356;10.704;2022-07-23T01:06:30;5.80;;;5.20;;
13741;SDS011;8461;52.356;10.704;2022-07-23T01:09:00;5.80;;;4.50;;
13741;SDS011;8461;52.356;10.704;2022-07-23T01:11:25;6.03;;;5.10;;
13741;SDS011;8461;52.356;10.704;2022-07-23T01:13:51;7.27;;;5.30;;
13741;SDS011;8461;52.356;10.704;2022-07-23T01:16:16;9.70;;;6.03;;
13741;SDS011;8461;52.356;10.704;2022-07-23T01:18:42;8.77;;;5.77;;
13741;SDS011;8461;52.356;10.704;2022-07-23T01:21:08;6.40;;;5.77;;
13741;SDS011;8461;52.356;10.704;2022-07-23T01:23:37;7.30;;;5.33;;
13741;SDS011;8461;52.356;10.704;2022-07-23T01:26:03;6.77;;;5.27;;
13741;SDS011;8461;52.356;10.704;2022-07-23T01:28:29;6.40;;;4.83;;
13741;SDS011;8461;52.356;10.704;2022-07-23T01:30:55;7.23;;;5.63;;
13741;SDS011;8461;52.356;10.704;2022-07-23T01:33:20;6.73;;;4.90;;
13741;SDS011;8461;52.356;10.704;2022-07-23T01:35:46;7.63;;;5.20;;
13741;SDS011;8461;52.356;10.704;2022-07-23T01:38:11;5.60;;;4.97;;
13741;SDS011;8461;52.356;10.704;2022-07-23T01:40:37;6.97;;;5.93;;
13741;SDS011;8461;52.356;10.704;2022-07-23T01:43:02;8.63;;;5.37;;
13741;SDS011;8461;52.356;10.704;2022-07-23T01:45:28;7.67;;;5.77;;
13741;SDS011;8461;52.356;10.704;2022-07-23T01:47:53;8.13;;;6.03;;
13741;SDS011;8461;52.356;10.704;2022-07-23T01:50:19;7.03;;;5.57;;
13741;SDS011;8461;52.356;10.704;2022-07-23T01:52:45;6.40;;;5.70;;
13741;SDS011;8461;52.356;10.704;2022-07-23T01:55:10;7.53;;;5.40;;
13741;SDS011;8461;52.356;10.704;2022-07-23T01:57:36;6.90;;;5.13;;
13741;SDS011;8461;52.356;10.704;2022-07-23T02:00:02;7.37;;;5.37;;
13741;SDS011;8461;52.356;10.704;2022-07-23T02:02:28;7.17;;;6.03;;
13741;SDS011;8461;52.356;10.704;2022-07-23T02:04:53;10.40;;;6.07;;
13741;SDS011;8461;52.356;10.704;2022-07-23T02:07:19;7.27;;;6.17;;
13741;SDS011;8461;52.356;10.704;2022-07-23T02:09:45;7.30;;;5.67;;
13741;SDS011;8461;52.356;10.704;2022-07-23T02:12:10;8.27;;;5.73;;
13741;SDS011;8461;52.356;10.704;2022-07-23T02:14:36;8.03;;;5.80;;
13741;SDS011;8461;52.356;10.704;2022-07-23T02:17:01;6.77;;;5.80;;
13741;SDS011;8461;52.356;10.704;2022-07-23T02:19:27;6.60;;;6.00;;
13741;SDS011;8461;52.356;10.704;2022-07-23T02:21:52;8.93;;;5.87;;
13741;SDS011;8461;52.356;10.704;2022-07-23T02:24:19;6.07;;;5.17;;
13741;SDS011;8461;52.356;10.704;2022-07-23T02:26:45;6.40;;;4.70;;
13741;SDS011;8461;52.356;10.704;2022-07-23T02:29:10;5.07;;;4.40;;
13741;SDS011;8461;52.356;10.704;2022-07-23T02:31:36;8.20;;;5.13;;
13741;SDS011;8461;52.356;10.704;2022-07-23T02:34:02;5.80;;;5.23;;
13741;SDS011;8461;52.356;10.704;2022-07-23T02:36:27;6.10;;;5.07;;
13741;SDS011;8461;52.356;10.704;2022-07-23T02:38:53;6.83;;;4.60;;
13741;SDS011;8461;52.356;10.704;2022-07-23T02:41:19;7.00;;;4.63;;
13741;SDS011;8461;52.356;10.704;2022-07-23T02:43:44;7.20;;;5.30;;
13741;SDS011;8461;52.356;10.704;2022-07-23T02:46:10;5.43;;;4.90;;
13741;SDS011;8461;52.356;10.704;2022-07-23T02:48:36;5.67;;;5.00;;
13741;SDS011;8461;52.356;10.704;2022-07-23T02:51:01;6.27;;;4.97;;
13741;SDS011;8461;52.356;10.704;2022-07-23T02:53:27;6.20;;;5.07;;
13741;SDS011;8461;52.356;10.704;2022-07-23T02:55:52;6.70;;;4.57;;
13741;SDS011;8461;52.356;10.704;2022-07-23T02:58:18;6.50;;;5.67;;
13741;SDS011;8461;52.356;10.704;2022-07-23T03:00:43;6.70;;;5.13;;
13741;SDS011;8461;52.356;10.704;2022-07-23T03:03:09;6.10;;;5.27;;
13741;SDS011;8461;52.356;10.704;2022-07-23T03:05:35;6.63;;;4.40;;
13741;SDS011;8461;52.356;10.704;2022-07-23T03:08:00;6.10;;;5.07;;
13741;SDS011;8461;52.356;10.704;2022-07-23T03:10:26;5.20;;;4.63;;
13741;SDS011;8461;52.356;10.704;2022-07-23T03:12:51;6.27;;;5.23;;
13741;SDS011;8461;52.356;10.704;2022-07-23T03:15:17;6.33;;;5.00;;
13741;SDS011;8461;52.356;10.704;2022-07-23T03:17:43;5.70;;;5.20;;
13741;SDS011;8461;52.356;10.704;2022-07-23T03:20:09;6.27;;;5.40;;
13741;SDS011;8461;52.356;10.704;2022-07-23T03:22:34;5.67;;;5.07;;
13741;SDS011;8461;52.356;10.704;2022-07-23T03:25:00;5.90;;;5.30;;
13741;SDS011;8461;52.356;10.704;2022-07-23T03:27:27;6.80;;;5.47;;
13741;SDS011;8461;52.356;10.704;2022-07-23T03:29:55;6.87;;;6.17;;
13741;SDS011;8461;52.356;10.704;2022-07-23T03:32:22;7.23;;;5.27;;
13741;SDS011;8461;52.356;10.704;2022-07-23T03:34:48;5.80;;;5.20;;
13741;SDS011;8461;52.356;10.704;2022-07-23T03:37:14;5.90;;;5.17;;
13741;SDS011;8461;52.356;10.704;2022-07-23T03:39:41;7.90;;;5.47;;
13741;SDS011;8461;52.356;10.704;2022-07-23T03:42:07;6.60;;;6.00;;
13741;SDS011;8461;52.356;10.704;2022-07-23T03:44:32;7.53;;;5.50;;
13741;SDS011;8461;52.356;10.704;2022-07-23T03:46:58;7.20;;;6.20;;
13741;SDS011;8461;52.356;10.704;2022-07-23T03:49:24;8.57;;;6.17;;
13741;SDS011;8461;52.356;10.704;2022-07-23T03:51:49;8.17;;;5.67;;
13741;SDS011;8461;52.356;10.704;2022-07-23T03:54:15;6.63;;;5.73;;
13741;SDS011;8461;52.356;10.704;2022-07-23T03:56:41;9.97;;;6.17;;
13741;SDS011;8461;52.356;10.704;2022-07-23T03:59:07;8.00;;;6.53;;
13741;SDS011;8461;52.356;10.704;2022-07-23T04:01:33;8.17;;;6.47;;
13741;SDS011;8461;52.356;10.704;2022-07-23T04:03:59;8.57;;;6.60;;
13741;SDS011;8461;52.356;10.704;2022-07-23T04:06:25;9.43;;;6.50;;
13741;SDS011;8461;52.356;10.704;2022-07-23T04:08:51;7.33;;;6.57;;
13741;SDS011;8461;52.356;10.704;2022-07-23T04:11:17;11.10;;;7.07;;
13741;SDS011;8461;52.356;10.704;2022-07-23T04:13:42;9.23;;;5.87;;
13741;SDS011;8461;52.356;10.704;2022-07-23T04:16:08;7.47;;;6.40;;
13741;SDS011;8461;52.356;10.704;2022-07-23T04:18:33;13.17;;;6.97;;
13741;SDS011;8461;52.356;10.704;2022-07-23T04:20:59;10.13;;;6.20;;
13741;SDS011;8461;52.356;10.704;2022-07-23T04:23:24;15.07;;;7.57;;
13741;SDS011;8461;52.356;10.704;2022-07-23T04:25:50;12.77;;;7.20;;
13741;SDS011;8461;52.356;10.704;2022-07-23T04:28:15;11.80;;;7.73;;
13741;SDS011;8461;52.356;10.704;2022-07-23T04:30:41;12.80;;;7.50;;
13741;SDS011;8461;52.356;10.704;2022-07-23T04:33:07;9.43;;;7.10;;
13741;SDS011;8461;52.356;10.704;2022-07-23T04:35:35;8.90;;;6.20;;
13741;SDS011;8461;52.356;10.704;2022-07-23T04:38:01;9.63;;;6.13;;
13741;SDS011;8461;52.356;10.704;2022-07-23T04:40:27;8.17;;;5.97;;
13741;SDS011;8461;52.356;10.704;2022-07-23T04:42:53;10.20;;;6.07;;
13741;SDS011;8461;52.356;10.704;2022-07-23T04:45:19;10.53;;;6.50;;
13741;SDS011;8461;52.356;10.704;2022-07-23T04:47:44;8.03;;;6.57;;
13741;SDS011;8461;52.356;10.704;2022-07-23T04:50:10;12.50;;;7.40;;
13741;SDS011;8461;52.356;10.704;2022-07-23T04:52:36;9.30;;;7.33;;
13741;SDS011;8461;52.356;10.704;2022-07-23T04:55:02;8.73;;;7.10;;
13741;SDS011;8461;52.356;10.704;2022-07-23T04:57:28;8.33;;;6.87;;
13741;SDS011;8461;52.356;10.704;2022-07-23T04:59:54;10.50;;;8.67;;
13741;SDS011;8461;52.356;10.704;2022-07-23T05:02:19;8.80;;;7.73;;
13741;SDS011;8461;52.356;10.704;2022-07-23T05:04:45;10.30;;;7.50;;
13741;SDS011;8461;52.356;10.704;2022-07-23T05:07:11;8.87;;;7.30;;
13741;SDS011;8461;52.356;10.704;2022-07-23T05:09:37;8.43;;;7.07;;
13741;SDS011;8461;52.356;10.704;2022-07-23T05:12:02;9.67;;;7.70;;
13741;SDS011;8461;52.356;10.704;2022-07-23T05:14:28;10.43;;;7.30;;
13741;SDS011;8461;52.356;10.704;2022-07-23T05:16:54;10.53;;;7.83;;
13741;SDS011;8461;52.356;10.704;2022-07-23T05:19:19;10.93;;;8.40;;
13741;SDS011;8461;52.356;10.704;2022-07-23T05:21:45;8.90;;;7.77;;
13741;SDS011;8461;52.356;10.704;2022-07-23T05:24:11;11.97;;;7.70;;
13741;SDS011;8461;52.356;10.704;2022-07-23T05:26:36;10.13;;;7.90;;
13741;SDS011;8461;52.356;10.704;2022-07-23T05:29:02;10.20;;;8.03;;
13741;SDS011;8461;52.356;10.704;2022-07-23T05:31:27;14.33;;;7.83;;
13741;SDS011;8461;52.356;10.704;2022-07-23T05:33:53;12.63;;;8.47;;
13741;SDS011;8461;52.356;10.704;2022-07-23T05:36:19;10.10;;;8.30;;
13741;SDS011;8461;52.356;10.704;2022-07-23T05:38:44;10.03;;;8.60;;
13741;SDS011;8461;52.356;10.704;2022-07-23T05:41:10;12.90;;;9.17;;
13741;SDS011;8461;52.356;10.704;2022-07-23T05:43:35;11.47;;;7.97;;
13741;SDS011;8461;52.356;10.704;2022-07-23T05:46:01;10.13;;;7.90;;
13741;SDS011;8461;52.356;10.704;2022-07-23T05:48:26;9.87;;;8.07;;
13741;SDS011;8461;52.356;10.704;2022-07-23T05:50:52;10.63;;;8.40;;
13741;SDS011;8461;52.356;10.704;2022-07-23T05:53:17;10.87;;;8.13;;
13741;SDS011;8461;52.356;10.704;2022-07-23T05:55:43;9.63;;;8.13;;
13741;SDS011;8461;52.356;10.704;2022-07-23T05:58:08;11.80;;;7.90;;
13741;SDS011;8461;52.356;10.704;2022-07-23T06:00:34;12.13;;;7.73;;
13741;SDS011;8461;52.356;10.704;2022-07-23T06:03:00;9.13;;;7.40;;
13741;SDS011;8461;52.356;10.704;2022-07-23T06:05:25;11.30;;;8.17;;
13741;SDS011;8461;52.356;10.704;2022-07-23T06:07:51;10.67;;;7.77;;
13741;SDS011;8461;52.356;10.704;2022-07-23T06:10:18;10.30;;;7.67;;
13741;SDS011;8461;52.356;10.704;2022-07-23T06:12:44;12.27;;;7.63;;
13741;SDS011;8461;52.356;10.704;2022-07-23T06:15:09;10.40;;;7.53;;
13741;SDS011;8461;52.356;10.704;2022-07-23T06:17:36;12.47;;;8.00;;
13741;SDS011;8461;52.356;10.704;2022-07-23T06:20:04;6.60;;;5.93;;
13741;SDS011;8461;52.356;10.704;2022-07-23T06:22:31;8.53;;;6.47;;
13741;SDS011;8461;52.356;10.704;2022-07-23T06:24:56;10.37;;;6.23;;
13741;SDS011;8461;52.356;10.704;2022-07-23T06:27:22;13.07;;;6.80;;
13741;SDS011;8461;52.356;10.704;2022-07-23T06:29:47;9.43;;;6.80;;
13741;SDS011;8461;52.356;10.704;2022-07-23T06:32:13;10.47;;;6.33;;
13741;SDS011;8461;52.356;10.704;2022-07-23T06:34:39;10.00;;;5.47;;
13741;SDS011;8461;52.356;10.704;2022-07-23T06:37:04;8.43;;;5.70;;
13741;SDS011;8461;52.356;10.704;2022-07-23T06:39:30;17.53;;;7.23;;
13741;SDS011;8461;52.356;10.704;2022-07-23T06:41:55;8.20;;;6.00;;
13741;SDS011;8461;52.356;10.704;2022-07-23T06:44:21;8.23;;;5.57;;
13741;SDS011;8461;52.356;10.704;2022-07-23T06:46:46;11.53;;;6.13;;
13741;SDS011;8461;52.356;10.704;2022-07-23T06:49:12;10.60;;;5.93;;
13741;SDS011;8461;52.356;10.704;2022-07-23T06:51:38;8.77;;;5.37;;
13741;SDS011;8461;52.356;10.704;2022-07-23T06:54:03;6.77;;;4.70;;
13741;SDS011;8461;52.356;10.704;2022-07-23T06:56:29;6.67;;;4.43;;
13741;SDS011;8461;52.356;10.704;2022-07-23T06:58:54;11.63;;;5.13;;
13741;SDS011;8461;52.356;10.704;2022-07-23T07:01:20;6.53;;;4.93;;
13741;SDS011;8461;52.356;10.704;2022-07-23T07:03:46;7.40;;;4.97;;
13741;SDS011;8461;52.356;10.704;2022-07-23T07:06:13;10.10;;;5.20;;
13741;SDS011;8461;52.356;10.704;2022-07-23T07:08:39;7.27;;;5.40;;
13741;SDS011;8461;52.356;10.704;2022-07-23T07:11:04;7.80;;;5.40;;
13741;SDS011;8461;52.356;10.704;2022-07-23T07:13:30;7.90;;;4.97;;
13741;SDS011;8461;52.356;10.704;2022-07-23T07:15:55;7.60;;;4.67;;
13741;SDS011;8461;52.356;10.704;2022-07-23T07:18:21;8.33;;;4.90;;
13741;SDS011;8461;52.356;10.704;2022-07-23T07:20:46;6.50;;;4.40;;
13741;SDS011;8461;52.356;10.704;2022-07-23T07:23:12;9.13;;;4.67;;
13741;SDS011;8461;52.356;10.704;2022-07-23T07:25:38;8.97;;;5.17;;
13741;SDS011;8461;52.356;10.704;2022-07-23T07:28:04;8.83;;;4.63;;
13741;SDS011;8461;52.356;10.704;2022-07-23T07:30:29;7.10;;;3.80;;
13741;SDS011;8461;52.356;10.704;2022-07-23T07:32:55;8.20;;;3.80;;
13741;SDS011;8461;52.356;10.704;2022-07-23T07:35:20;6.70;;;4.27;;
13741;SDS011;8461;52.356;10.704;2022-07-23T07:37:46;8.70;;;3.67;;
13741;SDS011;8461;52.356;10.704;2022-07-23T07:40:12;7.43;;;4.40;;
13741;SDS011;8461;52.356;10.704;2022-07-23T07:42:44;7.43;;;3.80;;
13741;SDS011;8461;52.356;10.704;2022-07-23T07:45:12;5.87;;;3.90;;
13741;SDS011;8461;52.356;10.704;2022-07-23T07:47:38;6.50;;;3.87;;
13741;SDS011;8461;52.356;10.704;2022-07-23T07:50:04;5.43;;;4.03;;
13741;SDS011;8461;52.356;10.704;2022-07-23T07:52:29;6.17;;;3.47;;
13741;SDS011;8461;52.356;10.704;2022-07-23T07:54:55;5.77;;;4.07;;
13741;SDS011;8461;52.356;10.704;2022-07-23T07:57:21;5.60;;;3.87;;
13741;SDS011;8461;52.356;10.704;2022-07-23T07:59:46;5.23;;;3.17;;
13741;SDS011;8461;52.356;10.704;2022-07-23T08:02:12;4.57;;;3.33;;
13741;SDS011;8461;52.356;10.704;2022-07-23T08:04:37;7.53;;;3.60;;
13741;SDS011;8461;52.356;10.704;2022-07-23T08:07:03;22.10;;;4.00;;
13741;SDS011;8461;52.356;10.704;2022-07-23T08:09:29;5.43;;;3.17;;
13741;SDS011;8461;52.356;10.704;2022-07-23T08:11:54;10.37;;;3.63;;
13741;SDS011;8461;52.356;10.704;2022-07-23T08:14:20;6.97;;;3.30;;
13741;SDS011;8461;52.356;10.704;2022-07-23T08:16:45;7.53;;;3.67;;
13741;SDS011;8461;52.356;10.704;2022-07-23T08:19:11;5.10;;;2.60;;
13741;SDS011;8461;52.356;10.704;2022-07-23T08:21:37;7.30;;;2.90;;
13741;SDS011;8461;52.356;10.704;2022-07-23T08:24:02;3.87;;;2.67;;
13741;SDS011;8461;52.356;10.704;2022-07-23T08:26:28;7.07;;;2.37;;
13741;SDS011;8461;52.356;10.704;2022-07-23T08:28:53;6.83;;;3.10;;
13741;SDS011;8461;52.356;10.704;2022-07-23T08:31:19;4.40;;;2.43;;
13741;SDS011;8461;52.356;10.704;2022-07-23T08:33:45;7.10;;;2.20;;
13741;SDS011;8461;52.356;10.704;2022-07-23T08:36:10;3.40;;;1.77;;
13741;SDS011;8461;52.356;10.704;2022-07-23T08:38:36;4.83;;;2.50;;
13741;SDS011;8461;52.356;10.704;2022-07-23T08:41:01;3.83;;;2.50;;
13741;SDS011;8461;52.356;10.704;2022-07-23T08:43:30;4.73;;;1.80;;
13741;SDS011;8461;52.356;10.704;2022-07-23T08:45:57;2.67;;;1.50;;
13741;SDS011;8461;52.356;10.704;2022-07-23T08:48:25;3.53;;;2.27;;
13741;SDS011;8461;52.356;10.704;2022-07-23T08:50:53;3.77;;;2.00;;
13741;SDS011;8461;52.356;10.704;2022-07-23T08:53:21;5.33;;;2.20;;
13741;SDS011;8461;52.356;10.704;2022-07-23T08:55:48;2.60;;;2.00;;
13741;SDS011;8461;52.356;10.704;2022-07-23T08:58:16;3.53;;;2.20;;
13741;SDS011;8461;52.356;10.704;2022-07-23T09:00:43;4.30;;;2.00;;
13741;SDS011;8461;52.356;10.704;2022-07-23T09:03:16;2.20;;;1.47;;
13741;SDS011;8461;52.356;10.704;2022-07-23T09:05:47;2.63;;;1.47;;
13741;SDS011;8461;52.356;10.704;2022-07-23T09:08:19;7.33;;;1.77;;
13741;SDS011;8461;52.356;10.704;2022-07-23T09:15:49;3.97;;;1.37;;
13741;SDS011;8461;52.356;10.704;2022-07-23T09:18:15;3.00;;;1.50;;
13741;SDS011;8461;52.356;10.704;2022-07-23T09:20:41;4.70;;;1.70;;
13741;SDS011;8461;52.356;10.704;2022-07-23T09:23:08;1.97;;;1.33;;
13741;SDS011;8461;52.356;10.704;2022-07-23T09:25:33;3.70;;;2.00;;
13741;SDS011;8461;52.356;10.704;2022-07-23T09:27:59;3.73;;;1.43;;
13741;SDS011;8461;52.356;10.704;2022-07-23T09:30:28;2.33;;;1.37;;
13741;SDS011;8461;52.356;10.704;2022-07-23T09:35:52;3.37;;;1.37;;
13741;SDS011;8461;52.356;10.704;2022-07-23T09:38:20;4.73;;;1.27;;
13741;SDS011;8461;52.356;10.704;2022-07-23T09:40:47;4.37;;;1.40;;
13741;SDS011;8461;52.356;10.704;2022-07-23T09:43:36;3.13;;;1.40;;
13741;SDS011;8461;52.356;10.704;2022-07-23T09:48:50;2.97;;;1.13;;
13741;SDS011;8461;52.356;10.704;2022-07-23T09:51:21;4.67;;;1.40;;
13741;SDS011;8461;52.356;10.704;2022-07-23T09:53:52;3.23;;;1.27;;
13741;SDS011;8461;52.356;10.704;2022-07-23T09:56:17;3.97;;;1.07;;
13741;SDS011;8461;52.356;10.704;2022-07-23T09:58:45;1.73;;;1.13;;
13741;SDS011;8461;52.356;10.704;2022-07-23T10:01:15;1.93;;;1.00;;
13741;SDS011;8461;52.356;10.704;2022-07-23T10:03:41;3.13;;;0.90;;
13741;SDS011;8461;52.356;10.704;2022-07-23T10:06:08;2.70;;;1.40;;
13741;SDS011;8461;52.356;10.704;2022-07-23T10:08:39;4.87;;;1.17;;
13741;SDS011;8461;52.356;10.704;2022-07-23T10:11:06;3.03;;;1.13;;
13741;SDS011;8461;52.356;10.704;2022-07-23T10:13:34;2.73;;;1.10;;
13741;SDS011;8461;52.356;10.704;2022-07-23T10:16:19;3.87;;;1.10;;
13741;SDS011;8461;52.356;10.704;2022-07-23T10:18:46;2.73;;;1.00;;
13741;SDS011;8461;52.356;10.704;2022-07-23T10:21:12;1.77;;;1.10;;
13741;SDS011;8461;52.356;10.704;2022-07-23T10:23:47;3.97;;;1.30;;
13741;SDS011;8461;52.356;10.704;2022-07-23T10:32:44;2.37;;;1.30;;
13741;SDS011;8461;52.356;10.704;2022-07-23T10:38:02;2.23;;;0.97;;
13741;SDS011;8461;52.356;10.704;2022-07-23T10:41:02;4.00;;;1.33;;
13741;SDS011;8461;52.356;10.704;2022-07-23T10:43:29;2.33;;;1.33;;
13741;SDS011;8461;52.356;10.704;2022-07-23T10:45:56;3.83;;;0.90;;
13741;SDS011;8461;52.356;10.704;2022-07-23T10:48:41;2.33;;;1.00;;
13741;SDS011;8461;52.356;10.704;2022-07-23T10:51:14;2.03;;;0.90;;
13741;SDS011;8461;52.356;10.704;2022-07-23T10:59:14;2.90;;;1.13;;
13741;SDS011;8461;52.356;10.704;2022-07-23T11:01:39;2.17;;;1.10;;
13741;SDS011;8461;52.356;10.704;2022-07-23T11:04:05;2.60;;;0.80;;
13741;SDS011;8461;52.356;10.704;2022-07-23T11:09:23;2.73;;;1.00;;
13741;SDS011;8461;52.356;10.704;2022-07-23T11:12:31;1.77;;;1.00;;
13741;SDS011;8461;52.356;10.704;2022-07-23T11:17:23;3.33;;;1.10;;
13741;SDS011;8461;52.356;10.704;2022-07-23T11:27:46;2.53;;;1.10;;
13741;SDS011;8461;52.356;10.704;2022-07-23T11:33:38;1.50;;;1.00;;
13741;SDS011;8461;52.356;10.704;2022-07-23T11:35:42;2.43;;;1.10;;
13741;SDS011;8461;52.356;10.704;2022-07-23T11:38:13;6.60;;;1.13;;
13741;SDS011;8461;52.356;10.704;2022-07-23T11:40:41;2.43;;;1.00;;
13741;SDS011;8461;52.356;10.704;2022-07-23T11:43:09;1.70;;;0.70;;
13741;SDS011;8461;52.356;10.704;2022-07-23T11:48:03;2.43;;;1.07;;
13741;SDS011;8461;52.356;10.704;2022-07-23T11:50:30;2.97;;;0.93;;
13741;SDS011;8461;52.356;10.704;2022-07-23T11:52:56;3.33;;;1.10;;
13741;SDS011;8461;52.356;10.704;2022-07-23T11:55:22;2.67;;;1.00;;
13741;SDS011;8461;52.356;10.704;2022-07-23T11:57:50;2.90;;;0.93;;
13741;SDS011;8461;52.356;10.704;2022-07-23T12:00:18;5.20;;;0.97;;
13741;SDS011;8461;52.356;10.704;2022-07-23T12:02:47;4.73;;;1.00;;
13741;SDS011;8461;52.356;10.704;2022-07-23T12:05:18;3.27;;;0.80;;
13741;SDS011;8461;52.356;10.704;2022-07-23T12:07:46;7.10;;;1.10;;
13741;SDS011;8461;52.356;10.704;2022-07-23T12:15:23;3.33;;;1.10;;
13741;SDS011;8461;52.356;10.704;2022-07-23T12:17:50;2.03;;;1.07;;
13741;SDS011;8461;52.356;10.704;2022-07-23T12:20:17;5.60;;;1.00;;
13741;SDS011;8461;52.356;10.704;2022-07-23T12:22:48;2.87;;;0.93;;
13741;SDS011;8461;52.356;10.704;2022-07-23T12:25:17;3.50;;;0.90;;
13741;SDS011;8461;52.356;10.704;2022-07-23T12:27:44;2.47;;;0.83;;
13741;SDS011;8461;52.356;10.704;2022-07-23T12:33:07;2.80;;;0.80;;
13741;SDS011;8461;52.356;10.704;2022-07-23T12:35:38;3.33;;;1.00;;
13741;SDS011;8461;52.356;10.704;2022-07-23T12:38:13;2.50;;;0.90;;
13741;SDS011;8461;52.356;10.704;2022-07-23T12:40:45;2.53;;;0.83;;
13741;SDS011;8461;52.356;10.704;2022-07-23T12:43:25;2.17;;;0.80;;
13741;SDS011;8461;52.356;10.704;2022-07-23T12:45:56;2.27;;;1.10;;
13741;SDS011;8461;52.356;10.704;2022-07-23T12:48:32;2.53;;;0.67;;
13741;SDS011;8461;52.356;10.704;2022-07-23T12:56:16;1.63;;;0.70;;
13741;SDS011;8461;52.356;10.704;2022-07-23T12:58:44;1.77;;;0.73;;
13741;SDS011;8461;52.356;10.704;2022-07-23T13:03:53;2.40;;;0.63;;
13741;SDS011;8461;52.356;10.704;2022-07-23T13:06:20;3.70;;;0.83;;
13741;SDS011;8461;52.356;10.704;2022-07-23T13:08:46;2.00;;;0.57;;
13741;SDS011;8461;52.356;10.704;2022-07-23T13:11:12;1.97;;;0.90;;
13741;SDS011;8461;52.356;10.704;2022-07-23T13:13:38;2.13;;;0.57;;
13741;SDS011;8461;52.356;10.704;2022-07-23T13:16:04;3.07;;;1.10;;
13741;SDS011;8461;52.356;10.704;2022-07-23T13:18:30;0.63;;;0.52;;
13741;SDS011;8461;52.356;10.704;2022-07-23T13:20:56;2.05;;;0.65;;
13741;SDS011;8461;52.356;10.704;2022-07-23T13:23:22;2.13;;;0.80;;
13741;SDS011;8461;52.356;10.704;2022-07-23T13:25:48;3.70;;;0.80;;
13741;SDS011;8461;52.356;10.704;2022-07-23T13:28:15;1.40;;;0.90;;
13741;SDS011;8461;52.356;10.704;2022-07-23T13:30:41;2.08;;;0.70;;
13741;SDS011;8461;52.356;10.704;2022-07-23T13:33:07;1.45;;;0.65;;
13741;SDS011;8461;52.356;10.704;2022-07-23T13:35:33;1.20;;;0.60;;
13741;SDS011;8461;52.356;10.704;2022-07-23T13:38:00;3.20;;;1.00;;
13741;SDS011;8461;52.356;10.704;2022-07-23T13:40:26;4.95;;;0.80;;
13741;SDS011;8461;52.356;10.704;2022-07-23T13:42:52;1.55;;;0.70;;
13741;SDS011;8461;52.356;10.704;2022-07-23T13:45:18;1.17;;;0.87;;
13741;SDS011;8461;52.356;10.704;2022-07-23T13:47:43;3.47;;;0.87;;
13741;SDS011;8461;52.356;10.704;2022-07-23T13:50:09;1.93;;;1.17;;
13741;SDS011;8461;52.356;10.704;2022-07-23T13:52:35;1.90;;;0.60;;
13741;SDS011;8461;52.356;10.704;2022-07-23T13:55:01;2.40;;;1.00;;
13741;SDS011;8461;52.356;10.704;2022-07-23T13:57:28;2.23;;;0.70;;
13741;SDS011;8461;52.356;10.704;2022-07-23T13:59:54;1.70;;;0.70;;
13741;SDS011;8461;52.356;10.704;2022-07-23T14:02:20;2.00;;;0.70;;
13741;SDS011;8461;52.356;10.704;2022-07-23T14:04:45;1.50;;;0.60;;
13741;SDS011;8461;52.356;10.704;2022-07-23T14:07:11;2.10;;;0.50;;
13741;SDS011;8461;52.356;10.704;2022-07-23T14:09:37;1.10;;;0.57;;
13741;SDS011;8461;52.356;10.704;2022-07-23T14:12:03;1.63;;;0.60;;
13741;SDS011;8461;52.356;10.704;2022-07-23T14:14:29;2.37;;;0.73;;
13741;SDS011;8461;52.356;10.704;2022-07-23T14:16:55;1.07;;;0.53;;
13741;SDS011;8461;52.356;10.704;2022-07-23T14:19:21;2.33;;;0.60;;
13741;SDS011;8461;52.356;10.704;2022-07-23T14:21:46;2.90;;;0.40;;
13741;SDS011;8461;52.356;10.704;2022-07-23T14:24:13;3.17;;;0.50;;
13741;SDS011;8461;52.356;10.704;2022-07-23T14:26:39;1.40;;;0.43;;
13741;SDS011;8461;52.356;10.704;2022-07-23T14:29:05;1.13;;;0.60;;
13741;SDS011;8461;52.356;10.704;2022-07-23T14:31:31;2.10;;;0.53;;
13741;SDS011;8461;52.356;10.704;2022-07-23T14:33:56;1.90;;;0.50;;
13741;SDS011;8461;52.356;10.704;2022-07-23T14:36:22;3.23;;;0.60;;
13741;SDS011;8461;52.356;10.704;2022-07-23T14:38:47;3.10;;;0.70;;
13741;SDS011;8461;52.356;10.704;2022-07-23T14:41:13;1.20;;;0.50;;
13741;SDS011;8461;52.356;10.704;2022-07-23T14:43:39;4.17;;;0.50;;
13741;SDS011;8461;52.356;10.704;2022-07-23T14:46:04;2.63;;;0.40;;
13741;SDS011;8461;52.356;10.704;2022-07-23T14:48:30;1.33;;;0.50;;
13741;SDS011;8461;52.356;10.704;2022-07-23T14:50:56;1.70;;;0.30;;
13741;SDS011;8461;52.356;10.704;2022-07-23T14:53:21;2.13;;;0.50;;
13741;SDS011;8461;52.356;10.704;2022-07-23T14:55:47;5.17;;;1.63;;
13741;SDS011;8461;52.356;10.704;2022-07-23T14:58:12;0.60;;;0.40;;
13741;SDS011;8461;52.356;10.704;2022-07-23T15:00:38;0.60;;;0.30;;
13741;SDS011;8461;52.356;10.704;2022-07-23T15:03:03;1.20;;;0.43;;
13741;SDS011;8461;52.356;10.704;2022-07-23T15:05:29;1.27;;;0.40;;
13741;SDS011;8461;52.356;10.704;2022-07-23T15:07:55;2.07;;;0.60;;
13741;SDS011;8461;52.356;10.704;2022-07-23T15:10:21;1.00;;;0.53;;
13741;SDS011;8461;52.356;10.704;2022-07-23T15:12:46;1.80;;;0.50;;
13741;SDS011;8461;52.356;10.704;2022-07-23T15:15:12;2.20;;;0.53;;
13741;SDS011;8461;52.356;10.704;2022-07-23T15:17:38;3.03;;;0.40;;
13741;SDS011;8461;52.356;10.704;2022-07-23T15:20:04;1.93;;;0.60;;
13741;SDS011;8461;52.356;10.704;2022-07-23T15:22:30;1.77;;;0.70;;
13741;SDS011;8461;52.356;10.704;2022-07-23T15:24:56;3.13;;;0.30;;
13741;SDS011;8461;52.356;10.704;2022-07-23T15:27:21;3.63;;;0.40;;
13741;SDS011;8461;52.356;10.704;2022-07-23T15:29:47;2.77;;;0.60;;
13741;SDS011;8461;52.356;10.704;2022-07-23T15:32:12;4.50;;;0.70;;
13741;SDS011;8461;52.356;10.704;2022-07-23T15:34:38;2.97;;;0.50;;
13741;SDS011;8461;52.356;10.704;2022-07-23T15:37:04;1.00;;;0.43;;
13741;SDS011;8461;52.356;10.704;2022-07-23T15:39:33;2.57;;;0.57;;
13741;SDS011;8461;52.356;10.704;2022-07-23T15:41:59;1.33;;;0.60;;